Mansfield Lahm Regional Airport
KMFD : now visible

Airfield :











YOU CAN JOIN US ON...

 
LOGIN :

Register | Disclaimer

   EN    FR    IT 

 









Legend :    VFR   Marginal VFR   IFR   Intensive IFR   Very Intensive IFR
Visi :
Ceiling :
>= 8 km
>= 3000ft
5 to 8 km
1000 to 3000 ft
1500m to 5 km
500 to 1000 ft
800 to 1500m
200 to 500 ft
< 800m
< 200 ft
Symbols :   Thunderstorms  Fog  Heavy snow  Heavy precipitations  Wind > 20 kt






- Airport Elevation : 1297 ft


KMFD - Mansfield Lahm Regional

CURRENT METAR :
  • 190852Z AUTO 24011G18KT 10SM BKN019 OVC027 M01/M04 A3001 RMK AO2 SLP177 T10111039 52005 TSNO

EXPIRED METARs :
  • 190839Z AUTO 24009G16KT 10SM SCT019 BKN027 OVC038 M01/M04 A3001 RMK AO2 T10111039 TSNO
  • 190752Z AUTO 22010KT 10SM BKN040 OVC047 M01/M03 A3001 RMK AO2 SLP177 T10111033 TSNO
  • 190652Z AUTO 23008KT 9SM FEW013 SCT027 OVC043 M01/M03 A3000 RMK AO2 SLP172 T10111033 TSNO

TAF KMFD
Valid from the 19 at 06:00 until the 20 at 06:00 UTC


190541Z 1906/2006 25009KT P6SM OVC015
FM191400 26009KT P6SM SCT035
FM191800 25012KT P6SM BKN080
FM200200 25011KT P6SM BKN030
FM200500 27012KT 5SM -SN OVC015
KZOB FIR / North America



MET'MAP, your aeronautical weather chart ! - Copyright ORBIFLY December 2007 - Disclaimer

ORBIFLY MET'MAP TEAM :

Programming & Development : Alexandra Zaïnal
Concept & original design : Baudouin d'Aumeries
Assistance for programming : Marc-Olivier Méhu
Technical & hardware support : Manuel Goepfert

Contact : metmap@orbifly.com




SOURCES & CREDITS :

   NOAA       Earth
Advisory